Time;durP1;ratioP1;P1;durP2;ratioP2;P2;SDS_P1;SDS_P2;PMS_P1;PMS_P2;Temp;Humidity;BMP_temperature;BMP_pressure;BME280_temperature;BME280_humidity;BME280_pressure;Samples;Min_cycle;Max_cycle;Signal;HPM_P1;HPM_P2
2023/03/16 00:00:50;;;;;;;12.88;1.92;;;;;;;2.22;nan;101795.25;4986703;28;20072;-58
2023/03/16 00:03:18;;;;;;;9.23;1.10;;;;;;;2.17;nan;101797.03;4981060;28;20637;-60
2023/03/16 00:05:47;;;;;;;8.57;1.20;;;;;;;2.09;nan;101792.72;4985078;28;20022;-53
2023/03/16 00:08:13;;;;;;;2.90;1.10;;;;;;;2.04;nan;101797.06;4984402;28;20046;-58
2023/03/16 00:10:45;;;;;;;5.85;1.75;;;;;;;2.01;nan;101802.28;4985002;28;20022;-55
2023/03/16 00:13:17;;;;;;;4.70;0.95;;;;;;;1.97;nan;101803.16;4989442;28;20081;-57
2023/03/16 00:15:54;;;;;;;5.95;1.10;;;;;;;1.93;nan;101798.84;4984317;28;20515;-58
2023/03/16 00:18:22;;;;;;;3.92;1.23;;;;;;;1.92;nan;101803.19;4986387;28;20109;-58
2023/03/16 00:20:58;;;;;;;4.32;1.70;;;;;;;1.86;nan;101807.56;4979022;28;20038;-58
2023/03/16 00:23:28;;;;;;;5.25;1.27;;;;;;;1.80;nan;101811.03;4980903;28;20029;-54
2023/03/16 00:25:54;;;;;;;6.43;1.38;;;;;;;1.73;nan;101812.81;4983897;28;20059;-56
2023/03/16 00:28:20;;;;;;;3.60;0.90;;;;;;;1.64;nan;101803.31;4976995;28;20022;-55
2023/03/16 00:30:47;;;;;;;6.38;1.58;;;;;;;1.61;nan;101807.63;4986852;28;20112;-54
2023/03/16 00:33:12;;;;;;;14.65;1.98;;;;;;;1.57;nan;101804.19;4989095;28;20496;-52
2023/03/16 00:35:38;;;;;;;5.10;1.52;;;;;;;1.56;nan;101812.84;4983871;28;20058;-53
2023/03/16 00:38:03;;;;;;;14.52;2.28;;;;;;;1.57;nan;101806.78;4984015;28;20089;-58
2023/03/16 00:40:29;;;;;;;7.97;2.22;;;;;;;1.58;nan;101816.28;4990647;28;20523;-58
2023/03/16 00:42:55;;;;;;;2.90;1.15;;;;;;;1.59;nan;101817.16;4979620;28;20045;-55
2023/03/16 00:45:22;;;;;;;7.88;1.15;;;;;;;1.55;nan;101813.69;4981655;28;20036;-59
2023/03/16 00:47:48;;;;;;;4.07;1.55;;;;;;;1.54;nan;101809.38;4984329;28;20034;-59
2023/03/16 00:50:14;;;;;;;5.97;0.95;;;;;;;1.54;nan;101817.16;4984138;28;20041;-56
2023/03/16 00:52:41;;;;;;;6.20;1.08;;;;;;;1.51;nan;101818.03;4984881;28;20077;-54
2023/03/16 00:55:07;;;;;;;5.05;1.33;;;;;;;1.47;nan;101818.06;4984683;28;20068;-54
2023/03/16 00:57:33;;;;;;;2.92;1.20;;;;;;;1.45;nan;101823.22;4985372;28;20445;-55
2023/03/16 00:59:58;;;;;;;7.85;1.50;;;;;;;1.47;nan;101824.09;4987071;28;20756;-53
2023/03/16 01:02:24;;;;;;;6.97;1.52;;;;;;;1.45;nan;101820.63;4980498;28;20036;-58
2023/03/16 01:04:51;;;;;;;8.13;1.67;;;;;;;1.45;nan;101815.44;4957071;28;20369;-56
2023/03/16 01:07:16;;;;;;;5.65;1.35;;;;;;;1.47;nan;101818.91;4978567;28;20104;-58
2023/03/16 01:09:42;;;;;;;3.90;1.38;;;;;;;1.49;nan;101814.59;4979041;28;20038;-58
2023/03/16 01:12:11;;;;;;;7.28;1.67;;;;;;;1.52;nan;101812.00;4977172;28;20125;-53
2023/03/16 01:14:37;;;;;;;3.75;1.17;;;;;;;1.51;nan;101818.03;4984636;28;20034;-55
2023/03/16 01:17:07;;;;;;;4.60;1.30;;;;;;;1.55;nan;101818.88;4990435;28;20034;-55
2023/03/16 01:19:34;;;;;;;3.72;1.27;;;;;;;1.58;nan;101812.84;4988483;28;20044;-55
2023/03/16 01:22:04;;;;;;;3.80;1.20;;;;;;;1.61;nan;101813.69;4983091;28;20040;-52
2023/03/16 01:24:29;;;;;;;7.03;1.50;;;;;;;1.67;nan;101818.00;4982899;28;20651;-54
2023/03/16 01:26:55;;;;;;;5.15;1.10;;;;;;;1.69;nan;101816.25;4979304;28;20042;-56
2023/03/16 01:29:21;;;;;;;7.50;1.23;;;;;;;1.70;nan;101818.00;4978515;28;20465;-52
2023/03/16 01:31:48;;;;;;;10.32;1.40;;;;;;;1.72;nan;101816.25;4984345;28;20026;-53
2023/03/16 01:34:16;;;;;;;3.80;1.02;;;;;;;1.74;nan;101811.91;4984284;28;20058;-53
2023/03/16 01:36:43;;;;;;;2.80;1.10;;;;;;;1.76;nan;101819.69;4984052;28;20038;-57
2023/03/16 01:39:10;;;;;;;1.90;0.88;;;;;;;1.74;nan;101824.03;4982233;28;20452;-53
2023/03/16 01:41:36;;;;;;;11.43;1.77;;;;;;;1.75;nan;101821.41;4982734;28;20493;-54
2023/03/16 01:44:01;;;;;;;5.28;1.05;;;;;;;1.77;nan;101814.50;4971473;28;20027;-55
2023/03/16 01:46:28;;;;;;;8.40;1.38;;;;;;;1.79;nan;101823.13;4975885;28;20065;-58
2023/03/16 01:48:57;;;;;;;9.07;1.42;;;;;;;1.78;nan;101811.03;4980609;28;20155;-56
2023/03/16 01:51:31;;;;;;;5.55;1.50;;;;;;;1.78;nan;101818.81;4982756;28;20030;-57
2023/03/16 01:54:03;;;;;;;8.07;1.80;;;;;;;1.78;nan;101820.56;4979808;28;20034;-58
2023/03/16 01:56:38;;;;;;;4.30;1.37;;;;;;;1.75;nan;101811.03;4981537;28;20030;-51
2023/03/16 01:59:09;;;;;;;7.25;0.90;;;;;;;1.73;nan;101802.41;4984432;28;20076;-55
2023/03/16 02:01:34;;;;;;;6.32;1.23;;;;;;;1.73;nan;101811.91;4981336;28;20062;-58
2023/03/16 02:04:38;;;;;;;6.53;1.27;;;;;;;1.73;nan;101811.91;4975669;28;20445;-56
2023/03/16 02:07:06;;;;;;;4.82;1.23;;;;;;;1.72;nan;101811.06;4973900;28;20026;-56
2023/03/16 02:09:34;;;;;;;3.55;1.17;;;;;;;1.74;nan;101808.47;5016312;23;20045;-54
2023/03/16 02:12:00;;;;;;;3.78;1.27;;;;;;;1.74;nan;101814.50;5000080;28;20030;-54
2023/03/16 02:14:25;;;;;;;8.43;1.30;;;;;;;1.71;nan;101804.16;4997914;28;20032;-57
2023/03/16 02:16:52;;;;;;;8.40;1.67;;;;;;;1.72;nan;101808.47;5002029;28;20037;-56
2023/03/16 02:19:37;;;;;;;4.22;1.50;;;;;;;1.72;nan;101805.88;4995123;28;20044;-55
2023/03/16 02:22:06;;;;;;;9.43;0.93;;;;;;;1.74;nan;101804.13;5004896;28;20030;-53
2023/03/16 02:24:32;;;;;;;7.05;1.63;;;;;;;1.73;nan;101805.00;4986525;28;20022;-54
2023/03/16 02:27:03;;;;;;;7.07;1.17;;;;;;;1.75;nan;101807.59;5000298;28;20040;-53
2023/03/16 02:29:44;;;;;;;6.88;1.67;;;;;;;1.75;nan;101800.66;5000378;28;20113;-57
2023/03/16 02:32:10;;;;;;;6.93;1.52;;;;;;;1.73;nan;101807.59;5000473;28;20045;-53
2023/03/16 02:34:37;;;;;;;7.35;1.77;;;;;;;1.69;nan;101805.88;5001895;28;20022;-56
2023/03/16 02:37:03;;;;;;;7.05;2.10;;;;;;;1.61;nan;101813.69;5007112;28;20041;-54
2023/03/16 02:39:29;;;;;;;5.97;1.83;;;;;;;1.56;nan;101819.78;5000015;28;20030;-53
2023/03/16 02:41:54;;;;;;;5.32;1.15;;;;;;;1.49;nan;101824.97;4997115;28;20038;-52
2023/03/16 02:44:28;;;;;;;4.90;1.60;;;;;;;1.44;nan;101821.50;5005830;28;20037;-54
2023/03/16 02:46:57;;;;;;;4.95;1.20;;;;;;;1.39;nan;101828.44;5001533;28;20049;-55
2023/03/16 02:49:25;;;;;;;9.65;1.90;;;;;;;1.35;nan;101826.72;5004452;28;20112;-55
2023/03/16 02:51:51;;;;;;;2.53;0.93;;;;;;;1.32;nan;101816.34;5002420;28;20421;-57
2023/03/16 02:54:17;;;;;;;5.22;1.35;;;;;;;1.30;nan;101823.25;5006785;28;20061;-56
2023/03/16 02:56:42;;;;;;;5.05;1.02;;;;;;;1.30;nan;101829.34;5001878;28;20484;-59
2023/03/16 02:59:08;;;;;;;2.63;0.95;;;;;;;1.27;nan;101828.47;4998765;28;20574;-56
2023/03/16 03:01:35;;;;;;;5.32;2.00;;;;;;;1.26;nan;101831.94;5000633;28;20105;-55
2023/03/16 03:04:01;;;;;;;5.63;2.20;;;;;;;1.26;nan;101834.53;5004501;28;20052;-53
2023/03/16 03:06:27;;;;;;;5.68;1.50;;;;;;;1.29;nan;101832.78;4999554;28;20025;-53
2023/03/16 03:08:53;;;;;;;7.13;1.35;;;;;;;1.27;nan;101836.25;5002727;28;20042;-55
2023/03/16 03:11:18;;;;;;;4.45;1.50;;;;;;;1.24;nan;101828.47;5003422;28;20117;-56
2023/03/16 03:13:45;;;;;;;6.13;1.20;;;;;;;1.20;nan;101838.84;4995478;28;20107;-53
2023/03/16 03:16:12;;;;;;;10.98;1.63;;;;;;;1.19;nan;101831.09;4998376;28;20046;-53
2023/03/16 03:18:37;;;;;;;7.22;1.65;;;;;;;1.17;nan;101838.00;4999350;28;20030;-55
2023/03/16 03:21:03;;;;;;;5.10;2.13;;;;;;;1.16;nan;101839.69;5001666;28;20053;-54
2023/03/16 03:23:29;;;;;;;9.25;1.15;;;;;;;1.18;nan;101839.72;5005455;28;20096;-55
2023/03/16 03:25:58;;;;;;;7.85;1.73;;;;;;;1.21;nan;101845.75;4995218;28;20029;-57
2023/03/16 03:28:24;;;;;;;12.00;2.50;;;;;;;1.22;nan;101841.44;4994491;28;20050;-55
2023/03/16 03:30:50;;;;;;;4.13;1.50;;;;;;;1.20;nan;101843.19;4998201;28;20794;-55
2023/03/16 03:33:16;;;;;;;7.82;1.55;;;;;;;1.19;nan;101837.13;5003934;28;20034;-56
2023/03/16 03:35:42;;;;;;;5.38;1.80;;;;;;;1.18;nan;101843.16;4999958;28;20038;-58
2023/03/16 03:38:07;;;;;;;7.60;1.60;;;;;;;1.18;nan;101847.50;4998529;28;20030;-58
2023/03/16 03:40:33;;;;;;;6.28;1.58;;;;;;;1.18;nan;101848.34;4990907;28;20658;-57
2023/03/16 03:43:00;;;;;;;3.75;0.85;;;;;;;1.15;nan;101842.31;5000837;28;20653;-56
2023/03/16 03:45:26;;;;;;;4.15;1.40;;;;;;;1.15;nan;101842.31;5000670;28;20034;-59
2023/03/16 03:47:53;;;;;;;5.53;1.40;;;;;;;1.13;nan;101847.50;4994543;28;20025;-57
2023/03/16 03:50:19;;;;;;;8.23;2.28;;;;;;;1.12;nan;101852.69;5002365;28;20026;-57
2023/03/16 03:52:45;;;;;;;6.00;1.67;;;;;;;1.11;nan;101854.41;4999343;28;20034;-59
2023/03/16 03:55:11;;;;;;;5.20;1.67;;;;;;;1.10;nan;101860.47;5003152;28;20038;-55
2023/03/16 03:57:36;;;;;;;5.88;2.47;;;;;;;1.10;nan;101852.69;4995399;28;20078;-56
2023/03/16 04:00:12;;;;;;;9.07;2.33;;;;;;;1.13;nan;101857.88;4999110;28;20021;-56
2023/03/16 04:02:38;;;;;;;6.60;2.35;;;;;;;1.12;nan;101860.44;5001382;28;20391;-56
2023/03/16 04:05:05;;;;;;;12.00;2.00;;;;;;;1.09;nan;101858.75;4998959;28;20189;-57
2023/03/16 04:07:30;;;;;;;6.95;2.60;;;;;;;1.08;nan;101857.00;5006904;28;20041;-57
2023/03/16 04:09:56;;;;;;;5.40;1.80;;;;;;;1.11;nan;101866.50;5001408;28;20474;-59
2023/03/16 04:12:22;;;;;;;5.25;1.55;;;;;;;1.09;nan;101861.34;4995718;28;20045;-56
2023/03/16 04:14:47;;;;;;;5.97;1.58;;;;;;;1.10;nan;101868.25;4994697;28;20056;-59
2023/03/16 04:17:13;;;;;;;6.30;1.67;;;;;;;1.09;nan;101871.69;5000652;28;20416;-56
2023/03/16 04:19:38;;;;;;;5.45;1.73;;;;;;;1.07;nan;101868.25;5003185;28;20034;-57
2023/03/16 04:22:04;;;;;;;8.10;2.50;;;;;;;1.08;nan;101869.97;5001698;28;20030;-57
2023/03/16 04:24:33;;;;;;;6.30;2.08;;;;;;;1.08;nan;101869.97;5006469;28;20025;-56
2023/03/16 04:26:59;;;;;;;4.25;2.63;;;;;;;1.11;nan;101874.28;5002270;28;20026;-58
2023/03/16 04:29:25;;;;;;;7.22;2.97;;;;;;;1.13;nan;101873.44;5001918;28;20084;-57
2023/03/16 04:31:52;;;;;;;5.40;1.90;;;;;;;1.12;nan;101871.72;4999363;28;20117;-56
2023/03/16 04:34:23;;;;;;;7.78;2.70;;;;;;;1.11;nan;101869.97;5008744;28;20026;-59
2023/03/16 04:36:52;;;;;;;9.25;2.80;;;;;;;1.10;nan;101877.72;5003591;28;20037;-56
2023/03/16 04:39:19;;;;;;;4.38;1.73;;;;;;;1.10;nan;101877.72;4999910;28;20033;-59
2023/03/16 04:41:44;;;;;;;6.70;1.65;;;;;;;1.08;nan;101874.28;5000293;28;20066;-55
2023/03/16 04:44:10;;;;;;;8.45;1.73;;;;;;;1.05;nan;101875.16;4998431;28;20076;-56
2023/03/16 04:46:36;;;;;;;2.17;0.85;;;;;;;1.05;nan;101876.03;5002498;28;20435;-57
2023/03/16 04:49:01;;;;;;;8.23;2.55;;;;;;;1.08;nan;101880.34;5002888;28;20388;-58
2023/03/16 04:51:29;;;;;;;11.13;1.88;;;;;;;1.07;nan;101873.44;4994738;28;20033;-59
2023/03/16 04:53:54;;;;;;;7.95;2.33;;;;;;;1.04;nan;101868.22;4990731;28;20429;-59
2023/03/16 04:56:20;;;;;;;11.82;2.30;;;;;;;1.01;nan;101878.59;4997531;28;20068;-56
2023/03/16 04:58:47;;;;;;;2.38;1.30;;;;;;;1.01;nan;101887.25;4999144;28;20035;-57
2023/03/16 05:01:14;;;;;;;7.03;1.92;;;;;;;1.00;nan;101887.22;4995660;28;20049;-56
2023/03/16 05:03:39;;;;;;;4.90;2.08;;;;;;;1.02;nan;101885.50;5002870;28;20088;-57
2023/03/16 05:06:05;;;;;;;8.48;2.78;;;;;;;1.05;nan;101885.53;5004410;28;20038;-56
2023/03/16 05:08:30;;;;;;;7.43;1.40;;;;;;;1.10;nan;101885.50;4993794;28;20076;-57
2023/03/16 05:10:57;;;;;;;10.18;1.65;;;;;;;1.13;nan;101893.28;5001252;28;20487;-57
2023/03/16 05:13:22;;;;;;;9.30;2.15;;;;;;;1.13;nan;101894.19;4996479;28;20023;-55
2023/03/16 05:15:48;;;;;;;5.60;1.40;;;;;;;1.16;nan;101891.56;5002328;28;20097;-55
2023/03/16 05:18:13;;;;;;;9.23;1.98;;;;;;;1.17;nan;101890.69;5005461;28;20088;-54
2023/03/16 05:20:40;;;;;;;11.38;1.77;;;;;;;1.18;nan;101887.25;5000398;28;20412;-54
2023/03/16 05:23:07;;;;;;;7.10;1.48;;;;;;;1.20;nan;101895.03;4994569;28;20388;-55
2023/03/16 05:25:32;;;;;;;6.18;1.80;;;;;;;1.24;nan;101907.13;4990702;28;20447;-60
2023/03/16 05:27:58;;;;;;;10.05;2.25;;;;;;;1.26;nan;101912.31;4996272;28;20176;-57
2023/03/16 05:30:23;;;;;;;10.25;1.92;;;;;;;1.28;nan;101913.19;4995717;28;20042;-60
2023/03/16 05:32:50;;;;;;;8.75;1.90;;;;;;;1.33;nan;101916.63;4982880;28;20044;-53
2023/03/16 05:35:15;;;;;;;5.20;2.10;;;;;;;1.35;nan;101920.97;4995585;28;20099;-55
2023/03/16 05:37:42;;;;;;;8.20;2.10;;;;;;;1.38;nan;101920.09;4986531;28;20061;-56
2023/03/16 05:40:15;;;;;;;7.78;2.00;;;;;;;1.37;nan;101926.16;4993552;28;20109;-57
2023/03/16 05:42:45;;;;;;;10.43;1.85;;;;;;;1.41;nan;101933.06;4990155;28;20033;-55
2023/03/16 05:45:13;;;;;;;8.05;1.98;;;;;;;1.43;nan;101928.75;5003779;28;20496;-58
2023/03/16 05:47:39;;;;;;;6.35;1.88;;;;;;;1.47;nan;101925.25;4989942;28;20034;-53
2023/03/16 05:50:05;;;;;;;8.18;1.92;;;;;;;1.48;nan;101921.81;4998004;28;20030;-56
2023/03/16 05:52:32;;;;;;;12.18;3.28;;;;;;;1.46;nan;101923.53;4989333;28;20058;-55
2023/03/16 05:54:58;;;;;;;8.73;2.80;;;;;;;1.40;nan;101931.34;4996984;28;20495;-56
2023/03/16 05:57:23;;;;;;;8.63;3.03;;;;;;;1.39;nan;101929.59;4997248;28;20100;-56
2023/03/16 05:59:49;;;;;;;11.15;3.00;;;;;;;1.32;nan;101930.47;4985701;28;20030;-56
2023/03/16 06:02:15;;;;;;;10.98;2.33;;;;;;;1.31;nan;101934.78;4988780;28;20032;-57
2023/03/16 06:04:40;;;;;;;9.80;2.47;;;;;;;1.33;nan;101940.84;5006443;28;20025;-56
2023/03/16 06:07:06;;;;;;;10.32;2.47;;;;;;;1.34;nan;101933.91;5000632;28;20088;-56
2023/03/16 06:09:31;;;;;;;11.98;2.38;;;;;;;1.36;nan;101934.78;5008380;28;20034;-57
2023/03/16 06:11:57;;;;;;;7.25;2.30;;;;;;;1.41;nan;101946.03;5006518;28;20391;-57
2023/03/16 06:14:23;;;;;;;6.57;2.53;;;;;;;1.41;nan;101951.22;5005675;28;20026;-59
2023/03/16 06:16:49;;;;;;;7.90;2.40;;;;;;;1.55;nan;101958.13;5004931;28;20484;-56
2023/03/16 06:19:16;;;;;;;7.32;2.50;;;;;;;1.51;nan;101960.72;5008257;28;20055;-57
2023/03/16 06:21:42;;;;;;;19.80;6.25;;;;;;;1.58;nan;101963.31;4988152;28;20034;-56
2023/03/16 06:24:08;;;;;;;7.63;2.83;;;;;;;1.60;nan;101964.16;5002239;28;20451;-57
2023/03/16 06:26:36;;;;;;;8.98;2.95;;;;;;;1.62;nan;101970.22;5008908;28;20034;-59
2023/03/16 06:29:02;;;;;;;15.38;3.50;;;;;;;1.63;nan;101967.66;5004689;28;20472;-56
2023/03/16 06:31:28;;;;;;;7.43;2.63;;;;;;;1.67;nan;101979.72;5009907;28;20037;-58
2023/03/16 06:33:54;;;;;;;10.65;3.92;;;;;;;1.74;nan;101978.00;5010584;28;20032;-58
2023/03/16 06:36:20;;;;;;;12.50;3.00;;;;;;;1.81;nan;101981.47;5008999;28;20035;-62
2023/03/16 06:38:46;;;;;;;8.00;2.20;;;;;;;1.83;nan;101985.78;5012449;28;20030;-61
2023/03/16 06:41:11;;;;;;;6.78;2.20;;;;;;;1.86;nan;101994.44;5011179;28;20476;-60
2023/03/16 06:43:37;;;;;;;6.32;1.88;;;;;;;1.88;nan;101995.31;5007899;28;20041;-59
2023/03/16 06:46:03;;;;;;;6.72;2.60;;;;;;;1.92;nan;101997.00;5009982;28;20053;-58
2023/03/16 06:48:28;;;;;;;9.18;2.58;;;;;;;1.94;nan;102008.25;5010929;28;20040;-59
2023/03/16 06:50:54;;;;;;;7.97;2.58;;;;;;;1.95;nan;102010.88;5005932;28;20038;-55
2023/03/16 06:53:20;;;;;;;8.82;3.00;;;;;;;2.01;nan;102015.19;5003112;28;20493;-60
2023/03/16 06:55:46;;;;;;;5.82;2.15;;;;;;;2.05;nan;102016.03;4997410;28;20141;-56
2023/03/16 06:58:12;;;;;;;11.07;3.17;;;;;;;2.11;nan;102019.50;5009877;28;20041;-56
2023/03/16 07:00:37;;;;;;;11.23;2.38;;;;;;;2.16;nan;102021.22;5003231;28;20033;-58
2023/03/16 07:03:03;;;;;;;14.27;2.50;;;;;;;2.22;nan;102021.19;5009645;28;20026;-56
2023/03/16 07:05:28;;;;;;;5.30;2.05;;;;;;;2.27;nan;102022.06;5004870;28;20033;-55
2023/03/16 07:07:54;;;;;;;7.75;2.13;;;;;;;2.28;nan;102014.25;5007302;28;20033;-55
2023/03/16 07:10:19;;;;;;;6.95;1.70;;;;;;;2.33;nan;102016.84;5009002;28;20064;-55
2023/03/16 07:12:45;;;;;;;9.07;2.33;;;;;;;2.37;nan;102021.16;5002590;28;20037;-55
2023/03/16 07:15:11;;;;;;;4.63;1.48;;;;;;;2.41;nan;102022.88;5011122;28;20037;-57
2023/03/16 07:17:37;;;;;;;8.30;2.20;;;;;;;2.48;nan;102031.50;5009596;28;20109;-59
2023/03/16 07:20:04;;;;;;;10.25;2.20;;;;;;;2.56;nan;102028.88;5004965;28;20121;-58
2023/03/16 07:22:31;;;;;;;6.90;2.05;;;;;;;2.59;nan;102031.47;5006428;28;20038;-58
2023/03/16 07:24:57;;;;;;;5.25;1.75;;;;;;;2.67;nan;102034.06;5003888;28;20026;-59
2023/03/16 07:27:23;;;;;;;9.98;1.73;;;;;;;2.71;nan;102039.22;5007275;28;20026;-60
2023/03/16 07:29:50;;;;;;;8.77;2.13;;;;;;;2.76;nan;102046.16;5003119;28;20076;-55
2023/03/16 07:32:17;;;;;;;7.78;2.33;;;;;;;2.83;nan;102051.31;5006208;28;20034;-56
2023/03/16 07:34:42;;;;;;;9.60;2.22;;;;;;;2.86;nan;102051.31;5005193;28;20492;-58
2023/03/16 07:37:08;;;;;;;6.07;1.83;;;;;;;2.93;nan;102059.94;5004661;28;20062;-55
2023/03/16 07:39:35;;;;;;;4.85;1.80;;;;;;;3.00;nan;102066.84;5003437;28;20049;-58
2023/03/16 07:42:00;;;;;;;6.28;2.10;;;;;;;3.05;nan;102059.00;4999674;28;20050;-56
2023/03/16 07:44:26;;;;;;;7.50;1.65;;;;;;;3.12;nan;102057.22;5012343;28;20125;-58
2023/03/16 07:46:52;;;;;;;7.22;2.30;;;;;;;3.19;nan;102051.97;5000085;28;20052;-56
2023/03/16 07:49:17;;;;;;;17.13;2.30;;;;;;;3.24;nan;102065.00;5010292;28;20026;-58
2023/03/16 07:51:43;;;;;;;6.75;1.77;;;;;;;3.30;nan;102053.69;5009055;28;20030;-57
2023/03/16 07:54:09;;;;;;;8.23;1.70;;;;;;;3.37;nan;102057.09;5006323;28;20547;-56
2023/03/16 07:56:35;;;;;;;11.40;2.42;;;;;;;3.50;nan;102067.41;5005983;28;20038;-59
2023/03/16 07:59:00;;;;;;;12.15;1.52;;;;;;;3.60;nan;102067.34;5003312;28;20033;-58
2023/03/16 08:01:27;;;;;;;11.68;1.38;;;;;;;3.71;nan;102067.25;5003861;28;20033;-56
2023/03/16 08:03:52;;;;;;;8.63;2.83;;;;;;;3.84;nan;102076.72;5004095;28;20018;-59
2023/03/16 08:06:18;;;;;;;10.48;2.65;;;;;;;3.95;nan;102074.00;5006942;28;20511;-56
2023/03/16 08:08:43;;;;;;;7.82;1.77;;;;;;;4.01;nan;102073.97;5010791;28;20376;-59
2023/03/16 08:11:10;;;;;;;9.18;1.58;;;;;;;4.04;nan;102078.28;5004683;28;20034;-62
2023/03/16 08:13:35;;;;;;;11.63;1.70;;;;;;;4.05;nan;102069.59;5003265;28;20034;-56
2023/03/16 08:16:01;;;;;;;8.95;1.60;;;;;;;4.09;nan;102077.34;5001621;28;20045;-58
2023/03/16 08:18:28;;;;;;;13.18;2.42;;;;;;;4.16;nan;102079.91;5005983;28;20049;-58
2023/03/16 08:20:55;;;;;;;16.40;1.52;;;;;;;4.24;nan;102085.91;5007180;28;20026;-55
2023/03/16 08:23:22;;;;;;;8.35;1.52;;;;;;;4.31;nan;102081.50;4999691;28;20195;-55
2023/03/16 08:25:53;;;;;;;8.10;1.52;;;;;;;4.34;nan;102076.25;5004770;28;20037;-55
2023/03/16 08:28:20;;;;;;;11.07;1.60;;;;;;;4.35;nan;102083.19;5004115;28;20121;-54
2023/03/16 08:30:50;;;;;;;10.75;2.35;;;;;;;4.39;nan;102095.31;5001460;28;20034;-53
2023/03/16 08:33:19;;;;;;;6.40;2.17;;;;;;;4.43;nan;102087.44;5009282;28;20033;-57
2023/03/16 08:35:46;;;;;;;6.47;1.88;;;;;;;4.47;nan;102088.28;5007507;28;20026;-52
2023/03/16 08:38:13;;;;;;;8.63;1.60;;;;;;;4.49;nan;102090.88;5012236;28;20120;-54
2023/03/16 08:40:47;;;;;;;10.85;1.98;;;;;;;4.49;nan;102096.94;5005229;28;20117;-55
2023/03/16 08:43:13;;;;;;;12.45;2.00;;;;;;;4.50;nan;102092.59;5004938;28;20030;-55
2023/03/16 08:45:39;;;;;;;8.43;1.70;;;;;;;4.55;nan;102096.88;4998604;28;20694;-55
2023/03/16 08:48:06;;;;;;;7.03;1.92;;;;;;;4.61;nan;102092.50;5007282;28;20065;-52
2023/03/16 08:50:32;;;;;;;12.65;2.10;;;;;;;4.64;nan;102100.25;5004771;28;20508;-57
2023/03/16 08:52:58;;;;;;;6.60;1.77;;;;;;;4.67;nan;102089.81;5006678;28;20062;-56
2023/03/16 08:55:23;;;;;;;16.50;3.83;;;;;;;4.67;nan;102095.03;5007911;28;20025;-55
2023/03/16 08:57:49;;;;;;;14.63;1.88;;;;;;;4.68;nan;102099.34;5004667;28;20033;-54
2023/03/16 09:00:16;;;;;;;10.30;2.05;;;;;;;4.70;nan;102100.22;4996643;28;20080;-59
2023/03/16 09:02:42;;;;;;;6.93;1.77;;;;;;;4.66;nan;102093.28;5001165;28;20056;-57
2023/03/16 09:05:10;;;;;;;15.18;1.85;;;;;;;4.69;nan;102098.47;5003284;28;20504;-58
2023/03/16 09:07:38;;;;;;;9.30;1.90;;;;;;;4.74;nan;102101.91;5004984;28;20034;-56
2023/03/16 09:10:05;;;;;;;9.05;2.25;;;;;;;4.77;nan;102101.00;5000065;28;20076;-56
2023/03/16 09:12:33;;;;;;;15.07;1.92;;;;;;;4.82;nan;102110.50;5004649;28;20066;-58
2023/03/16 09:14:59;;;;;;;13.82;2.17;;;;;;;4.92;nan;102097.31;5000813;28;20041;-57
2023/03/16 09:17:24;;;;;;;4.65;1.77;;;;;;;4.90;nan;102101.72;4997367;28;20042;-57
2023/03/16 09:19:50;;;;;;;9.82;1.90;;;;;;;4.92;nan;102110.38;5000631;28;20043;-59
2023/03/16 09:22:15;;;;;;;5.70;1.35;;;;;;;4.88;nan;102102.59;5001153;28;20037;-60
2023/03/16 09:24:41;;;;;;;9.20;1.83;;;;;;;4.92;nan;102107.75;5002275;28;20047;-56
2023/03/16 09:27:07;;;;;;;14.98;2.25;;;;;;;4.95;nan;102115.56;5011369;28;20033;-55
2023/03/16 09:29:33;;;;;;;3.17;0.80;;;;;;;4.98;nan;102115.53;5003130;28;20058;-58
2023/03/16 09:31:58;;;;;;;31.50;13.23;;;;;;;5.02;nan;102112.00;5006884;28;20503;-54
2023/03/16 09:34:24;;;;;;;17.88;3.53;;;;;;;5.02;nan;102112.00;5003363;28;20030;-59
2023/03/16 09:36:49;;;;;;;8.38;1.83;;;;;;;5.00;nan;102118.97;4998766;28;20480;-57
2023/03/16 09:39:14;;;;;;;9.10;2.33;;;;;;;5.04;nan;102118.06;5003305;28;20026;-56
2023/03/16 09:41:47;;;;;;;9.75;2.47;;;;;;;5.11;nan;102119.72;5000561;28;20021;-57
2023/03/16 09:44:42;;;;;;;13.68;1.83;;;;;;;5.15;nan;102118.78;5011254;28;20384;-58
2023/03/16 09:47:10;;;;;;;5.03;1.70;;;;;;;5.15;nan;102129.22;5006542;28;20050;-56
2023/03/16 09:49:50;;;;;;;9.32;2.17;;;;;;;5.16;nan;102136.19;5004642;28;20040;-57
2023/03/16 09:52:21;;;;;;;10.93;1.67;;;;;;;5.22;nan;102123.94;5003924;28;20065;-56
2023/03/16 09:55:28;;;;;;;8.70;1.73;;;;;;;5.21;nan;102132.66;4998155;28;20030;-58
2023/03/16 09:57:54;;;;;;;10.98;1.92;;;;;;;5.26;nan;102136.03;5010931;28;20026;-57
2023/03/16 10:00:24;;;;;;;16.05;2.17;;;;;;;5.32;nan;102138.59;5009171;28;20693;-57
2023/03/16 10:02:55;;;;;;;8.73;1.90;;;;;;;5.34;nan;102137.69;5006040;28;20069;-57
2023/03/16 10:05:22;;;;;;;10.20;2.38;;;;;;;5.41;nan;102130.63;5003418;28;20080;-55
2023/03/16 10:07:51;;;;;;;10.60;1.83;;;;;;;5.52;nan;102145.28;4999035;28;20034;-55
2023/03/16 10:10:54;;;;;;;16.77;1.90;;;;;;;5.56;nan;102139.13;4998043;28;20034;-60
2023/03/16 10:13:42;;;;;;;4.88;0.93;;;;;;;5.58;nan;102142.56;4996761;28;20105;-57
2023/03/16 10:16:22;;;;;;;11.80;1.45;;;;;;;5.70;nan;102131.09;5005333;28;20432;-57
2023/03/16 10:18:56;;;;;;;7.35;1.55;;;;;;;5.77;nan;102137.94;5005049;28;20038;-58
2023/03/16 10:21:23;;;;;;;10.68;1.85;;;;;;;5.77;nan;102135.31;5004856;28;20030;-58
2023/03/16 10:23:51;;;;;;;15.30;2.08;;;;;;;5.84;nan;102138.72;5001234;28;20037;-56
2023/03/16 10:26:23;;;;;;;11.32;3.05;;;;;;;5.91;nan;102130.75;5007851;28;20110;-56
2023/03/16 10:28:49;;;;;;;15.48;5.22;;;;;;;5.97;nan;102135.03;5003485;28;20034;-56
2023/03/16 10:31:21;;;;;;;16.70;3.15;;;;;;;6.04;nan;102128.00;5003968;28;20064;-59
2023/03/16 10:33:51;;;;;;;11.07;3.60;;;;;;;6.05;nan;102133.19;5003333;28;20026;-59
2023/03/16 10:36:32;;;;;;;13.30;2.15;;;;;;;6.02;nan;102130.63;5005593;28;20038;-55
2023/03/16 10:39:18;;;;;;;11.07;1.90;;;;;;;6.06;nan;102124.47;4999309;28;20690;-56
2023/03/16 10:41:47;;;;;;;17.15;1.73;;;;;;;6.15;nan;102122.56;5004441;28;20033;-56
2023/03/16 10:44:26;;;;;;;11.73;2.00;;;;;;;6.20;nan;102126.81;5003298;28;20022;-57
2023/03/16 10:47:04;;;;;;;14.52;1.75;;;;;;;6.23;nan;102132.00;5000894;28;20034;-58
2023/03/16 10:49:43;;;;;;;6.68;1.60;;;;;;;6.24;nan;102122.44;5005654;28;20365;-57
2023/03/16 10:52:18;;;;;;;6.05;1.98;;;;;;;6.25;nan;102126.78;5002665;28;20079;-59
2023/03/16 10:54:51;;;;;;;12.82;2.17;;;;;;;6.35;nan;102130.94;5005136;28;20044;-55
2023/03/16 10:57:24;;;;;;;22.25;3.10;;;;;;;6.48;nan;102130.72;5012566;28;20104;-56
2023/03/16 10:59:56;;;;;;;12.55;2.58;;;;;;;6.59;nan;102131.38;5007366;28;20121;-57
2023/03/16 11:02:32;;;;;;;12.13;2.60;;;;;;;6.67;nan;102126.88;5016884;28;20057;-59
2023/03/16 11:04:57;;;;;;;12.43;1.88;;;;;;;6.69;nan;102130.31;5008302;28;20484;-56
2023/03/16 11:07:24;;;;;;;10.75;2.30;;;;;;;6.70;nan;102126.81;5008428;28;20053;-58
2023/03/16 11:09:54;;;;;;;10.50;2.38;;;;;;;6.73;nan;102125.88;5007866;28;20026;-55
2023/03/16 11:12:29;;;;;;;11.82;2.25;;;;;;;6.78;nan;102128.41;5013075;28;20052;-59
2023/03/16 11:15:11;;;;;;;6.97;1.88;;;;;;;6.84;nan;102128.31;5008309;28;20038;-57
2023/03/16 11:17:43;;;;;;;10.50;1.50;;;;;;;6.90;nan;102128.16;5001599;28;20021;-59
2023/03/16 11:20:20;;;;;;;6.15;1.27;;;;;;;6.97;nan;102121.91;5004430;28;20042;-58
2023/03/16 11:22:47;;;;;;;5.90;1.38;;;;;;;7.05;nan;102124.38;5007155;28;20072;-57
2023/03/16 11:25:32;;;;;;;11.93;2.20;;;;;;;7.10;nan;102124.28;5003302;28;20154;-56
2023/03/16 11:28:31;;;;;;;7.47;1.52;;;;;;;7.11;nan;102110.31;5008658;28;22347;-60
2023/03/16 11:31:26;;;;;;;8.00;2.00;;;;;;;7.15;nan;102119.81;5007606;28;20030;-57
2023/03/16 11:33:54;;;;;;;6.47;1.83;;;;;;;7.17;nan;102115.41;5011321;28;20022;-56
2023/03/16 11:37:24;;;;;;;9.20;2.65;;;;;;;7.15;nan;102111.97;5004115;28;20041;-56
2023/03/16 11:40:08;;;;;;;6.90;1.38;;;;;;;7.20;nan;102104.84;4934499;28;20035;-56
2023/03/16 11:42:38;;;;;;;6.65;1.35;;;;;;;7.28;nan;102108.19;5007163;28;20112;-55
2023/03/16 11:45:35;;;;;;;9.93;2.63;;;;;;;7.32;nan;102115.09;5010699;28;20018;-58
2023/03/16 11:48:00;;;;;;;6.40;1.10;;;;;;;7.44;nan;102105.22;5007753;28;20026;-55
2023/03/16 11:51:02;;;;;;;8.20;1.73;;;;;;;7.62;nan;102102.19;5009728;28;20149;-57
2023/03/16 11:53:28;;;;;;;6.37;1.27;;;;;;;7.77;nan;102100.09;5009022;28;20034;-56
2023/03/16 11:56:09;;;;;;;8.35;1.35;;;;;;;7.88;nan;102102.44;5007766;28;20391;-55